sensor_id;sensor_type;location;lat;lon;timestamp;temperature;humidity
9177;DHT22;4623;54.310;10.112;2022-11-13T00:00:57;9.30;99.90
9177;DHT22;4623;54.310;10.112;2022-11-13T00:03:23;9.30;99.90
9177;DHT22;4623;54.310;10.112;2022-11-13T00:05:57;9.30;99.90
9177;DHT22;4623;54.310;10.112;2022-11-13T00:08:23;9.50;99.90
9177;DHT22;4623;54.310;10.112;2022-11-13T00:10:49;9.50;99.90
9177;DHT22;4623;54.310;10.112;2022-11-13T00:13:14;9.40;99.90
9177;DHT22;4623;54.310;10.112;2022-11-13T00:15:40;9.30;99.90
9177;DHT22;4623;54.310;10.112;2022-11-13T00:18:06;9.30;99.90
9177;DHT22;4623;54.310;10.112;2022-11-13T00:20:31;9.20;99.90
9177;DHT22;4623;54.310;10.112;2022-11-13T00:22:57;9.20;99.90
9177;DHT22;4623;54.310;10.112;2022-11-13T00:25:22;9.20;99.90
9177;DHT22;4623;54.310;10.112;2022-11-13T00:27:48;9.20;99.90
9177;DHT22;4623;54.310;10.112;2022-11-13T00:30:14;9.20;99.90
9177;DHT22;4623;54.310;10.112;2022-11-13T00:32:39;9.20;99.90
9177;DHT22;4623;54.310;10.112;2022-11-13T00:35:05;9.20;99.90
9177;DHT22;4623;54.310;10.112;2022-11-13T00:37:31;9.10;99.90
9177;DHT22;4623;54.310;10.112;2022-11-13T00:39:57;9.00;99.90
9177;DHT22;4623;54.310;10.112;2022-11-13T00:42:22;8.90;99.90
9177;DHT22;4623;54.310;10.112;2022-11-13T00:44:48;8.90;99.90
9177;DHT22;4623;54.310;10.112;2022-11-13T00:47:14;8.90;99.90
9177;DHT22;4623;54.310;10.112;2022-11-13T00:49:39;8.90;99.90
9177;DHT22;4623;54.310;10.112;2022-11-13T00:52:05;8.90;99.90
9177;DHT22;4623;54.310;10.112;2022-11-13T00:54:30;8.90;99.90
9177;DHT22;4623;54.310;10.112;2022-11-13T00:56:56;8.90;99.90
9177;DHT22;4623;54.310;10.112;2022-11-13T00:59:22;8.90;99.90
9177;DHT22;4623;54.310;10.112;2022-11-13T01:01:47;9.00;99.90
9177;DHT22;4623;54.310;10.112;2022-11-13T01:04:13;8.90;99.90
9177;DHT22;4623;54.310;10.112;2022-11-13T01:06:38;8.90;99.90
9177;DHT22;4623;54.310;10.112;2022-11-13T01:09:04;8.90;99.90
9177;DHT22;4623;54.310;10.112;2022-11-13T01:11:30;8.90;99.90
9177;DHT22;4623;54.310;10.112;2022-11-13T01:13:56;8.80;99.90
9177;DHT22;4623;54.310;10.112;2022-11-13T01:16:24;8.80;99.90
9177;DHT22;4623;54.310;10.112;2022-11-13T01:18:51;8.80;99.90
9177;DHT22;4623;54.310;10.112;2022-11-13T01:21:20;8.80;99.90
9177;DHT22;4623;54.310;10.112;2022-11-13T01:23:46;8.80;99.90
9177;DHT22;4623;54.310;10.112;2022-11-13T01:26:19;8.70;99.90
9177;DHT22;4623;54.310;10.112;2022-11-13T01:28:46;8.60;99.90
9177;DHT22;4623;54.310;10.112;2022-11-13T01:31:18;8.50;99.90
9177;DHT22;4623;54.310;10.112;2022-11-13T01:33:45;8.50;99.90
9177;DHT22;4623;54.310;10.112;2022-11-13T01:36:14;8.50;99.90
9177;DHT22;4623;54.310;10.112;2022-11-13T01:38:40;8.50;99.90
9177;DHT22;4623;54.310;10.112;2022-11-13T01:41:07;8.60;99.90
9177;DHT22;4623;54.310;10.112;2022-11-13T01:43:36;8.70;99.90
9177;DHT22;4623;54.310;10.112;2022-11-13T01:49:16;8.80;99.90
9177;DHT22;4623;54.310;10.112;2022-11-13T01:52:00;8.90;99.90
9177;DHT22;4623;54.310;10.112;2022-11-13T01:54:33;8.90;99.90
9177;DHT22;4623;54.310;10.112;2022-11-13T01:57:02;8.90;99.90
9177;DHT22;4623;54.310;10.112;2022-11-13T01:59:33;8.90;99.90
9177;DHT22;4623;54.310;10.112;2022-11-13T02:02:00;8.90;99.90
9177;DHT22;4623;54.310;10.112;2022-11-13T02:04:27;8.80;99.90
9177;DHT22;4623;54.310;10.112;2022-11-13T02:07:03;8.80;99.90
9177;DHT22;4623;54.310;10.112;2022-11-13T02:09:37;8.80;99.90
9177;DHT22;4623;54.310;10.112;2022-11-13T02:12:06;8.70;99.90
9177;DHT22;4623;54.310;10.112;2022-11-13T02:14:33;8.60;99.90
9177;DHT22;4623;54.310;10.112;2022-11-13T02:17:03;8.60;99.90
9177;DHT22;4623;54.310;10.112;2022-11-13T02:19:33;8.60;99.90
9177;DHT22;4623;54.310;10.112;2022-11-13T02:22:25;8.60;99.90
9177;DHT22;4623;54.310;10.112;2022-11-13T02:24:54;8.60;99.90
9177;DHT22;4623;54.310;10.112;2022-11-13T02:27:26;8.70;99.90
9177;DHT22;4623;54.310;10.112;2022-11-13T02:29:54;8.80;99.90
9177;DHT22;4623;54.310;10.112;2022-11-13T02:32:20;8.80;99.90
9177;DHT22;4623;54.310;10.112;2022-11-13T02:34:46;8.80;99.90
9177;DHT22;4623;54.310;10.112;2022-11-13T02:37:11;8.80;99.90
9177;DHT22;4623;54.310;10.112;2022-11-13T02:39:37;8.80;99.90
9177;DHT22;4623;54.310;10.112;2022-11-13T02:42:03;8.90;99.90
9177;DHT22;4623;54.310;10.112;2022-11-13T02:44:28;8.90;99.90
9177;DHT22;4623;54.310;10.112;2022-11-13T02:46:54;8.90;99.90
9177;DHT22;4623;54.310;10.112;2022-11-13T02:49:20;8.90;99.90
9177;DHT22;4623;54.310;10.112;2022-11-13T02:51:45;8.80;99.90
9177;DHT22;4623;54.310;10.112;2022-11-13T02:54:11;8.80;99.90
9177;DHT22;4623;54.310;10.112;2022-11-13T02:56:37;8.80;99.90
9177;DHT22;4623;54.310;10.112;2022-11-13T02:59:02;8.80;99.90
9177;DHT22;4623;54.310;10.112;2022-11-13T03:01:28;8.70;99.90
9177;DHT22;4623;54.310;10.112;2022-11-13T03:03:54;8.70;99.90
9177;DHT22;4623;54.310;10.112;2022-11-13T03:06:19;8.70;99.90
9177;DHT22;4623;54.310;10.112;2022-11-13T03:08:45;8.60;99.90
9177;DHT22;4623;54.310;10.112;2022-11-13T03:11:10;8.60;99.90
9177;DHT22;4623;54.310;10.112;2022-11-13T03:13:36;8.60;99.90
9177;DHT22;4623;54.310;10.112;2022-11-13T03:16:14;8.60;99.90
9177;DHT22;4623;54.310;10.112;2022-11-13T03:18:40;8.50;99.90
9177;DHT22;4623;54.310;10.112;2022-11-13T03:21:11;8.50;99.90
9177;DHT22;4623;54.310;10.112;2022-11-13T03:23:37;8.40;99.90
9177;DHT22;4623;54.310;10.112;2022-11-13T03:26:06;8.40;99.90
9177;DHT22;4623;54.310;10.112;2022-11-13T03:28:32;8.40;99.90
9177;DHT22;4623;54.310;10.112;2022-11-13T03:30:58;8.40;99.90
9177;DHT22;4623;54.310;10.112;2022-11-13T03:33:24;8.40;99.90
9177;DHT22;4623;54.310;10.112;2022-11-13T03:35:50;8.40;99.90
9177;DHT22;4623;54.310;10.112;2022-11-13T03:38:15;8.40;99.90
9177;DHT22;4623;54.310;10.112;2022-11-13T03:40:41;8.40;99.90
9177;DHT22;4623;54.310;10.112;2022-11-13T03:43:07;8.40;99.90
9177;DHT22;4623;54.310;10.112;2022-11-13T03:45:33;8.40;99.90
9177;DHT22;4623;54.310;10.112;2022-11-13T03:47:59;8.50;99.90
9177;DHT22;4623;54.310;10.112;2022-11-13T03:50:25;8.50;99.90
9177;DHT22;4623;54.310;10.112;2022-11-13T03:52:51;8.50;99.90
9177;DHT22;4623;54.310;10.112;2022-11-13T03:55:17;8.50;99.90
9177;DHT22;4623;54.310;10.112;2022-11-13T03:57:43;8.60;99.90
9177;DHT22;4623;54.310;10.112;2022-11-13T04:00:09;8.60;99.90
9177;DHT22;4623;54.310;10.112;2022-11-13T04:02:35;8.50;99.90
9177;DHT22;4623;54.310;10.112;2022-11-13T04:05:01;8.50;99.90
9177;DHT22;4623;54.310;10.112;2022-11-13T04:07:26;8.40;99.90
9177;DHT22;4623;54.310;10.112;2022-11-13T04:09:52;8.30;99.90
9177;DHT22;4623;54.310;10.112;2022-11-13T04:12:17;8.20;99.90
9177;DHT22;4623;54.310;10.112;2022-11-13T04:14:43;8.20;99.90
9177;DHT22;4623;54.310;10.112;2022-11-13T04:17:09;8.10;99.90
9177;DHT22;4623;54.310;10.112;2022-11-13T04:19:34;8.10;99.90
9177;DHT22;4623;54.310;10.112;2022-11-13T04:22:00;8.20;99.90
9177;DHT22;4623;54.310;10.112;2022-11-13T04:24:25;8.20;99.90
9177;DHT22;4623;54.310;10.112;2022-11-13T04:26:51;8.20;99.90
9177;DHT22;4623;54.310;10.112;2022-11-13T04:29:17;8.30;99.90
9177;DHT22;4623;54.310;10.112;2022-11-13T04:31:42;8.30;99.90
9177;DHT22;4623;54.310;10.112;2022-11-13T04:34:08;8.20;99.90
9177;DHT22;4623;54.310;10.112;2022-11-13T04:36:33;8.20;99.90
9177;DHT22;4623;54.310;10.112;2022-11-13T04:38:59;8.20;99.90
9177;DHT22;4623;54.310;10.112;2022-11-13T04:41:24;8.10;99.90
9177;DHT22;4623;54.310;10.112;2022-11-13T04:44:08;8.10;99.90
9177;DHT22;4623;54.310;10.112;2022-11-13T04:46:34;8.00;99.90
9177;DHT22;4623;54.310;10.112;2022-11-13T04:49:00;8.10;99.90
9177;DHT22;4623;54.310;10.112;2022-11-13T04:51:25;8.10;99.90
9177;DHT22;4623;54.310;10.112;2022-11-13T04:53:51;8.10;99.90
9177;DHT22;4623;54.310;10.112;2022-11-13T04:56:16;8.10;99.90
9177;DHT22;4623;54.310;10.112;2022-11-13T04:58:42;8.10;99.90
9177;DHT22;4623;54.310;10.112;2022-11-13T05:01:08;8.10;99.90
9177;DHT22;4623;54.310;10.112;2022-11-13T05:03:33;8.10;99.90
9177;DHT22;4623;54.310;10.112;2022-11-13T05:06:07;8.00;99.90
9177;DHT22;4623;54.310;10.112;2022-11-13T05:08:33;8.00;99.90
9177;DHT22;4623;54.310;10.112;2022-11-13T05:10:59;8.00;99.90
9177;DHT22;4623;54.310;10.112;2022-11-13T05:13:26;8.00;99.90
9177;DHT22;4623;54.310;10.112;2022-11-13T05:16:08;8.00;99.90
9177;DHT22;4623;54.310;10.112;2022-11-13T05:18:35;8.00;99.90
9177;DHT22;4623;54.310;10.112;2022-11-13T05:21:01;8.00;99.90
9177;DHT22;4623;54.310;10.112;2022-11-13T05:23:27;8.10;99.90
9177;DHT22;4623;54.310;10.112;2022-11-13T05:25:59;8.00;99.90
9177;DHT22;4623;54.310;10.112;2022-11-13T05:28:25;8.00;99.90
9177;DHT22;4623;54.310;10.112;2022-11-13T05:30:51;8.00;99.90
9177;DHT22;4623;54.310;10.112;2022-11-13T05:33:16;8.00;99.90
9177;DHT22;4623;54.310;10.112;2022-11-13T05:35:42;8.00;99.90
9177;DHT22;4623;54.310;10.112;2022-11-13T05:38:08;8.10;99.90
9177;DHT22;4623;54.310;10.112;2022-11-13T05:40:33;8.10;99.90
9177;DHT22;4623;54.310;10.112;2022-11-13T05:42:59;8.20;99.90
9177;DHT22;4623;54.310;10.112;2022-11-13T05:45:24;8.20;99.90
9177;DHT22;4623;54.310;10.112;2022-11-13T05:47:50;8.30;99.90
9177;DHT22;4623;54.310;10.112;2022-11-13T05:50:16;8.30;99.90
9177;DHT22;4623;54.310;10.112;2022-11-13T05:52:41;8.20;99.90
9177;DHT22;4623;54.310;10.112;2022-11-13T05:55:07;8.20;99.90
9177;DHT22;4623;54.310;10.112;2022-11-13T05:57:33;8.20;99.90
9177;DHT22;4623;54.310;10.112;2022-11-13T05:59:58;8.20;99.90
9177;DHT22;4623;54.310;10.112;2022-11-13T06:02:24;8.20;99.90
9177;DHT22;4623;54.310;10.112;2022-11-13T06:04:50;8.20;99.90
9177;DHT22;4623;54.310;10.112;2022-11-13T06:07:15;8.20;99.90
9177;DHT22;4623;54.310;10.112;2022-11-13T06:09:41;8.20;99.90
9177;DHT22;4623;54.310;10.112;2022-11-13T06:12:06;8.10;99.90
9177;DHT22;4623;54.310;10.112;2022-11-13T06:14:32;8.10;99.90
9177;DHT22;4623;54.310;10.112;2022-11-13T06:16:58;8.10;99.90
9177;DHT22;4623;54.310;10.112;2022-11-13T06:19:23;8.10;99.90
9177;DHT22;4623;54.310;10.112;2022-11-13T06:21:49;8.10;99.90
9177;DHT22;4623;54.310;10.112;2022-11-13T06:24:14;8.20;99.90
9177;DHT22;4623;54.310;10.112;2022-11-13T06:26:40;8.20;99.90
9177;DHT22;4623;54.310;10.112;2022-11-13T06:29:08;8.30;99.90
9177;DHT22;4623;54.310;10.112;2022-11-13T06:31:35;8.30;99.90
9177;DHT22;4623;54.310;10.112;2022-11-13T06:34:01;8.30;99.90
9177;DHT22;4623;54.310;10.112;2022-11-13T06:36:32;8.20;99.90
9177;DHT22;4623;54.310;10.112;2022-11-13T06:38:58;8.30;99.90
9177;DHT22;4623;54.310;10.112;2022-11-13T06:41:26;8.30;99.90
9177;DHT22;4623;54.310;10.112;2022-11-13T06:43:54;8.30;99.90
9177;DHT22;4623;54.310;10.112;2022-11-13T06:46:23;8.20;99.90
9177;DHT22;4623;54.310;10.112;2022-11-13T06:48:50;8.20;99.90
9177;DHT22;4623;54.310;10.112;2022-11-13T06:51:18;8.30;99.90
9177;DHT22;4623;54.310;10.112;2022-11-13T06:53:44;8.30;99.90
9177;DHT22;4623;54.310;10.112;2022-11-13T06:56:10;8.40;99.90
9177;DHT22;4623;54.310;10.112;2022-11-13T06:58:37;8.40;99.90
9177;DHT22;4623;54.310;10.112;2022-11-13T07:01:14;8.40;99.90
9177;DHT22;4623;54.310;10.112;2022-11-13T07:03:40;8.40;99.90
9177;DHT22;4623;54.310;10.112;2022-11-13T07:06:08;8.40;99.90
9177;DHT22;4623;54.310;10.112;2022-11-13T07:08:34;8.40;99.90
9177;DHT22;4623;54.310;10.112;2022-11-13T07:11:00;8.50;99.90
9177;DHT22;4623;54.310;10.112;2022-11-13T07:13:27;8.50;99.90
9177;DHT22;4623;54.310;10.112;2022-11-13T07:15:53;8.50;99.90
9177;DHT22;4623;54.310;10.112;2022-11-13T07:18:19;8.50;99.90
9177;DHT22;4623;54.310;10.112;2022-11-13T07:20:47;8.50;99.90
9177;DHT22;4623;54.310;10.112;2022-11-13T07:23:12;8.60;99.90
9177;DHT22;4623;54.310;10.112;2022-11-13T07:25:38;8.60;99.90
9177;DHT22;4623;54.310;10.112;2022-11-13T07:28:03;8.70;99.90
9177;DHT22;4623;54.310;10.112;2022-11-13T07:30:29;8.70;99.90
9177;DHT22;4623;54.310;10.112;2022-11-13T07:32:55;8.80;99.90
9177;DHT22;4623;54.310;10.112;2022-11-13T07:35:20;8.90;99.90
9177;DHT22;4623;54.310;10.112;2022-11-13T07:37:46;8.90;99.90
9177;DHT22;4623;54.310;10.112;2022-11-13T07:40:12;8.80;99.90
9177;DHT22;4623;54.310;10.112;2022-11-13T07:42:38;8.80;99.90
9177;DHT22;4623;54.310;10.112;2022-11-13T07:45:04;8.70;99.90
9177;DHT22;4623;54.310;10.112;2022-11-13T07:47:30;8.70;99.90
9177;DHT22;4623;54.310;10.112;2022-11-13T07:49:56;8.70;99.90
9177;DHT22;4623;54.310;10.112;2022-11-13T07:52:21;8.60;99.90
9177;DHT22;4623;54.310;10.112;2022-11-13T07:54:47;8.60;99.90
9177;DHT22;4623;54.310;10.112;2022-11-13T07:57:13;8.60;99.90
9177;DHT22;4623;54.310;10.112;2022-11-13T07:59:38;8.60;99.90
9177;DHT22;4623;54.310;10.112;2022-11-13T08:02:04;8.50;99.90
9177;DHT22;4623;54.310;10.112;2022-11-13T08:04:29;8.60;99.90
9177;DHT22;4623;54.310;10.112;2022-11-13T08:06:55;8.70;99.90
9177;DHT22;4623;54.310;10.112;2022-11-13T08:09:21;8.80;99.90
9177;DHT22;4623;54.310;10.112;2022-11-13T08:11:46;8.80;99.90
9177;DHT22;4623;54.310;10.112;2022-11-13T08:14:12;8.80;99.90
9177;DHT22;4623;54.310;10.112;2022-11-13T08:16:38;8.90;99.90
9177;DHT22;4623;54.310;10.112;2022-11-13T08:19:04;8.90;99.90
9177;DHT22;4623;54.310;10.112;2022-11-13T08:21:29;8.90;99.90
9177;DHT22;4623;54.310;10.112;2022-11-13T08:23:55;9.00;99.90
9177;DHT22;4623;54.310;10.112;2022-11-13T08:26:21;9.10;99.90
9177;DHT22;4623;54.310;10.112;2022-11-13T08:28:46;9.30;99.90
9177;DHT22;4623;54.310;10.112;2022-11-13T08:31:14;9.50;99.90
9177;DHT22;4623;54.310;10.112;2022-11-13T08:33:42;9.80;99.90
9177;DHT22;4623;54.310;10.112;2022-11-13T08:36:09;10.10;99.90
9177;DHT22;4623;54.310;10.112;2022-11-13T08:38:35;10.70;99.90
9177;DHT22;4623;54.310;10.112;2022-11-13T08:41:03;11.00;99.90
9177;DHT22;4623;54.310;10.112;2022-11-13T08:43:29;11.60;99.90
9177;DHT22;4623;54.310;10.112;2022-11-13T08:45:55;12.00;99.90
9177;DHT22;4623;54.310;10.112;2022-11-13T08:48:22;12.10;99.90
9177;DHT22;4623;54.310;10.112;2022-11-13T08:50:52;12.00;99.90
9177;DHT22;4623;54.310;10.112;2022-11-13T08:53:19;12.20;99.90
9177;DHT22;4623;54.310;10.112;2022-11-13T08:55:44;12.40;99.90
9177;DHT22;4623;54.310;10.112;2022-11-13T08:58:10;12.60;99.90
9177;DHT22;4623;54.310;10.112;2022-11-13T09:00:36;12.40;99.90
9177;DHT22;4623;54.310;10.112;2022-11-13T09:03:02;12.10;99.90
9177;DHT22;4623;54.310;10.112;2022-11-13T09:05:27;11.70;99.90
9177;DHT22;4623;54.310;10.112;2022-11-13T09:07:58;11.40;99.90
9177;DHT22;4623;54.310;10.112;2022-11-13T09:10:24;11.00;99.90
9177;DHT22;4623;54.310;10.112;2022-11-13T09:13:02;10.80;99.90
9177;DHT22;4623;54.310;10.112;2022-11-13T09:15:29;10.50;99.90
9177;DHT22;4623;54.310;10.112;2022-11-13T09:17:59;10.40;99.90
9177;DHT22;4623;54.310;10.112;2022-11-13T09:20:26;10.20;99.90
9177;DHT22;4623;54.310;10.112;2022-11-13T09:22:57;10.00;99.90
9177;DHT22;4623;54.310;10.112;2022-11-13T09:25:23;10.00;99.90
9177;DHT22;4623;54.310;10.112;2022-11-13T09:27:57;9.80;99.90
9177;DHT22;4623;54.310;10.112;2022-11-13T09:30:24;9.70;99.90
9177;DHT22;4623;54.310;10.112;2022-11-13T09:32:56;9.60;99.90
9177;DHT22;4623;54.310;10.112;2022-11-13T09:35:24;9.30;99.90
9177;DHT22;4623;54.310;10.112;2022-11-13T09:40:37;9.30;99.90
9177;DHT22;4623;54.310;10.112;2022-11-13T09:43:06;9.30;99.90
9177;DHT22;4623;54.310;10.112;2022-11-13T09:45:36;9.50;99.90
9177;DHT22;4623;54.310;10.112;2022-11-13T09:50:58;9.50;99.90
9177;DHT22;4623;54.310;10.112;2022-11-13T09:53:28;9.40;99.90
9177;DHT22;4623;54.310;10.112;2022-11-13T09:58:59;9.30;99.90
9177;DHT22;4623;54.310;10.112;2022-11-13T10:04:00;9.40;99.90
9177;DHT22;4623;54.310;10.112;2022-11-13T10:12:01;9.50;99.90
9177;DHT22;4623;54.310;10.112;2022-11-13T10:17:35;9.30;99.90
9177;DHT22;4623;54.310;10.112;2022-11-13T10:20:11;9.50;99.90
9177;DHT22;4623;54.310;10.112;2022-11-13T10:22:50;9.50;99.90
9177;DHT22;4623;54.310;10.112;2022-11-13T10:25:17;9.50;99.90
9177;DHT22;4623;54.310;10.112;2022-11-13T10:27:56;9.40;99.90
9177;DHT22;4623;54.310;10.112;2022-11-13T10:30:22;9.40;99.90
9177;DHT22;4623;54.310;10.112;2022-11-13T10:32:48;9.30;99.90
9177;DHT22;4623;54.310;10.112;2022-11-13T10:38:27;9.40;99.90
9177;DHT22;4623;54.310;10.112;2022-11-13T10:41:15;9.40;99.90
9177;DHT22;4623;54.310;10.112;2022-11-13T10:44:00;9.30;99.90
9177;DHT22;4623;54.310;10.112;2022-11-13T10:46:28;9.20;99.90
9177;DHT22;4623;54.310;10.112;2022-11-13T10:48:58;9.20;99.90
9177;DHT22;4623;54.310;10.112;2022-11-13T10:51:34;9.20;99.90
9177;DHT22;4623;54.310;10.112;2022-11-13T10:54:26;9.20;99.90
9177;DHT22;4623;54.310;10.112;2022-11-13T10:57:13;9.20;99.90
9177;DHT22;4623;54.310;10.112;2022-11-13T10:59:44;9.10;99.90
9177;DHT22;4623;54.310;10.112;2022-11-13T11:02:25;9.10;99.90
9177;DHT22;4623;54.310;10.112;2022-11-13T11:05:16;9.10;99.90
9177;DHT22;4623;54.310;10.112;2022-11-13T11:07:42;9.20;99.90
9177;DHT22;4623;54.310;10.112;2022-11-13T11:10:33;9.20;99.90
9177;DHT22;4623;54.310;10.112;2022-11-13T11:13:08;9.20;99.90
9177;DHT22;4623;54.310;10.112;2022-11-13T11:15:46;9.30;99.90
9177;DHT22;4623;54.310;10.112;2022-11-13T11:18:21;9.10;99.90
9177;DHT22;4623;54.310;10.112;2022-11-13T11:20:52;9.10;99.90
9177;DHT22;4623;54.310;10.112;2022-11-13T11:26:34;9.00;99.90
9177;DHT22;4623;54.310;10.112;2022-11-13T11:29:18;9.10;99.90
9177;DHT22;4623;54.310;10.112;2022-11-13T11:32:04;9.10;99.90
9177;DHT22;4623;54.310;10.112;2022-11-13T11:34:44;9.20;99.90
9177;DHT22;4623;54.310;10.112;2022-11-13T11:37:12;9.20;99.90
9177;DHT22;4623;54.310;10.112;2022-11-13T11:39:50;9.20;99.90
9177;DHT22;4623;54.310;10.112;2022-11-13T11:45:31;9.20;99.90
9177;DHT22;4623;54.310;10.112;2022-11-13T11:47:59;9.30;99.90
9177;DHT22;4623;54.310;10.112;2022-11-13T11:53:27;9.20;99.90
9177;DHT22;4623;54.310;10.112;2022-11-13T12:01:16;9.20;99.90
9177;DHT22;4623;54.310;10.112;2022-11-13T12:03:49;9.20;99.90
9177;DHT22;4623;54.310;10.112;2022-11-13T12:09:25;9.20;99.90
9177;DHT22;4623;54.310;10.112;2022-11-13T12:17:22;9.10;99.90
9177;DHT22;4623;54.310;10.112;2022-11-13T12:23:01;9.20;99.90
9177;DHT22;4623;54.310;10.112;2022-11-13T12:25:45;9.20;99.90
9177;DHT22;4623;54.310;10.112;2022-11-13T12:33:42;9.20;99.90
9177;DHT22;4623;54.310;10.112;2022-11-13T12:36:11;9.20;99.90
9177;DHT22;4623;54.310;10.112;2022-11-13T12:38:49;9.20;99.90
9177;DHT22;4623;54.310;10.112;2022-11-13T12:41:43;9.30;99.90
9177;DHT22;4623;54.310;10.112;2022-11-13T12:44:44;9.30;99.90
9177;DHT22;4623;54.310;10.112;2022-11-13T12:47:11;9.30;99.90
9177;DHT22;4623;54.310;10.112;2022-11-13T12:49:37;9.30;99.90
9177;DHT22;4623;54.310;10.112;2022-11-13T12:52:21;9.30;99.90
9177;DHT22;4623;54.310;10.112;2022-11-13T12:54:48;9.30;99.90
9177;DHT22;4623;54.310;10.112;2022-11-13T12:57:23;9.30;99.90
9177;DHT22;4623;54.310;10.112;2022-11-13T12:59:56;9.30;99.90
9177;DHT22;4623;54.310;10.112;2022-11-13T13:08:03;9.40;99.90
9177;DHT22;4623;54.310;10.112;2022-11-13T13:16:28;9.50;99.90
9177;DHT22;4623;54.310;10.112;2022-11-13T13:19:25;9.40;99.90
9177;DHT22;4623;54.310;10.112;2022-11-13T13:21:52;9.50;99.90
9177;DHT22;4623;54.310;10.112;2022-11-13T13:24:33;9.60;99.90
9177;DHT22;4623;54.310;10.112;2022-11-13T13:26:59;9.60;99.90
9177;DHT22;4623;54.310;10.112;2022-11-13T13:29:27;9.50;99.90
9177;DHT22;4623;54.310;10.112;2022-11-13T13:34:50;9.60;99.90
9177;DHT22;4623;54.310;10.112;2022-11-13T13:43:41;9.60;99.90
9177;DHT22;4623;54.310;10.112;2022-11-13T13:46:16;9.60;99.90
9177;DHT22;4623;54.310;10.112;2022-11-13T13:48:44;9.60;99.90
9177;DHT22;4623;54.310;10.112;2022-11-13T13:51:39;9.70;99.90
9177;DHT22;4623;54.310;10.112;2022-11-13T13:54:07;9.80;99.90
9177;DHT22;4623;54.310;10.112;2022-11-13T13:56:40;9.80;99.90
9177;DHT22;4623;54.310;10.112;2022-11-13T13:59:30;9.80;99.90
9177;DHT22;4623;54.310;10.112;2022-11-13T14:02:02;9.70;99.90
9177;DHT22;4623;54.310;10.112;2022-11-13T14:04:40;9.80;99.90
9177;DHT22;4623;54.310;10.112;2022-11-13T14:07:19;9.80;99.90
9177;DHT22;4623;54.310;10.112;2022-11-13T14:09:45;9.80;99.90
9177;DHT22;4623;54.310;10.112;2022-11-13T14:12:21;9.80;99.90
9177;DHT22;4623;54.310;10.112;2022-11-13T14:14:48;9.80;99.90
9177;DHT22;4623;54.310;10.112;2022-11-13T14:17:22;9.80;99.90
9177;DHT22;4623;54.310;10.112;2022-11-13T14:19:54;9.80;99.90
9177;DHT22;4623;54.310;10.112;2022-11-13T14:22:21;9.80;99.90
9177;DHT22;4623;54.310;10.112;2022-11-13T14:24:53;9.80;99.90
9177;DHT22;4623;54.310;10.112;2022-11-13T14:27:22;9.90;99.90
9177;DHT22;4623;54.310;10.112;2022-11-13T14:29:56;9.90;99.90
9177;DHT22;4623;54.310;10.112;2022-11-13T14:32:28;9.80;99.90
9177;DHT22;4623;54.310;10.112;2022-11-13T14:34:56;9.80;99.90
9177;DHT22;4623;54.310;10.112;2022-11-13T14:37:35;9.90;99.90
9177;DHT22;4623;54.310;10.112;2022-11-13T14:40:04;9.90;99.90
9177;DHT22;4623;54.310;10.112;2022-11-13T14:42:36;9.90;99.90
9177;DHT22;4623;54.310;10.112;2022-11-13T14:45:20;10.00;99.90
9177;DHT22;4623;54.310;10.112;2022-11-13T14:48:03;10.00;99.90
9177;DHT22;4623;54.310;10.112;2022-11-13T14:50:31;10.00;99.90
9177;DHT22;4623;54.310;10.112;2022-11-13T14:53:04;10.10;99.90
9177;DHT22;4623;54.310;10.112;2022-11-13T14:55:32;10.10;99.90
9177;DHT22;4623;54.310;10.112;2022-11-13T14:58:00;10.10;99.90
9177;DHT22;4623;54.310;10.112;2022-11-13T15:00:31;10.10;99.90
9177;DHT22;4623;54.310;10.112;2022-11-13T15:02:58;10.10;99.90
9177;DHT22;4623;54.310;10.112;2022-11-13T15:05:24;10.00;99.90
9177;DHT22;4623;54.310;10.112;2022-11-13T15:07:50;10.00;99.90
9177;DHT22;4623;54.310;10.112;2022-11-13T15:10:21;10.00;99.90
9177;DHT22;4623;54.310;10.112;2022-11-13T15:12:47;9.90;99.90
9177;DHT22;4623;54.310;10.112;2022-11-13T15:15:16;10.00;99.90
9177;DHT22;4623;54.310;10.112;2022-11-13T15:17:43;10.00;99.90
9177;DHT22;4623;54.310;10.112;2022-11-13T15:20:22;10.00;99.90
9177;DHT22;4623;54.310;10.112;2022-11-13T15:22:50;10.00;99.90
9177;DHT22;4623;54.310;10.112;2022-11-13T15:25:21;10.00;99.90
9177;DHT22;4623;54.310;10.112;2022-11-13T15:27:47;10.10;99.90
9177;DHT22;4623;54.310;10.112;2022-11-13T15:30:13;10.10;99.90
9177;DHT22;4623;54.310;10.112;2022-11-13T15:32:39;10.10;99.90
9177;DHT22;4623;54.310;10.112;2022-11-13T15:35:08;10.20;99.90
9177;DHT22;4623;54.310;10.112;2022-11-13T15:37:35;10.10;99.90
9177;DHT22;4623;54.310;10.112;2022-11-13T15:40:01;10.20;99.90
9177;DHT22;4623;54.310;10.112;2022-11-13T15:42:32;10.20;99.90
9177;DHT22;4623;54.310;10.112;2022-11-13T15:44:59;10.20;99.90
9177;DHT22;4623;54.310;10.112;2022-11-13T15:47:30;10.20;99.90
9177;DHT22;4623;54.310;10.112;2022-11-13T15:49:56;10.20;99.90
9177;DHT22;4623;54.310;10.112;2022-11-13T15:52:23;10.20;99.90
9177;DHT22;4623;54.310;10.112;2022-11-13T15:54:50;10.30;99.90
9177;DHT22;4623;54.310;10.112;2022-11-13T15:57:25;10.20;99.90
9177;DHT22;4623;54.310;10.112;2022-11-13T15:59:51;10.20;99.90
9177;DHT22;4623;54.310;10.112;2022-11-13T16:02:16;10.20;99.90
9177;DHT22;4623;54.310;10.112;2022-11-13T16:04:42;10.10;99.90
9177;DHT22;4623;54.310;10.112;2022-11-13T16:07:22;10.20;99.90
9177;DHT22;4623;54.310;10.112;2022-11-13T16:09:49;10.20;99.90
9177;DHT22;4623;54.310;10.112;2022-11-13T16:12:15;10.20;99.90
9177;DHT22;4623;54.310;10.112;2022-11-13T16:14:41;10.10;99.90
9177;DHT22;4623;54.310;10.112;2022-11-13T16:17:15;10.10;99.90
9177;DHT22;4623;54.310;10.112;2022-11-13T16:19:46;10.20;99.90
9177;DHT22;4623;54.310;10.112;2022-11-13T16:22:23;10.20;99.90
9177;DHT22;4623;54.310;10.112;2022-11-13T16:24:49;10.30;99.90
9177;DHT22;4623;54.310;10.112;2022-11-13T16:27:26;10.30;99.90
9177;DHT22;4623;54.310;10.112;2022-11-13T16:29:52;10.20;99.90
9177;DHT22;4623;54.310;10.112;2022-11-13T16:32:18;10.20;99.90
9177;DHT22;4623;54.310;10.112;2022-11-13T16:34:44;10.20;99.90
9177;DHT22;4623;54.310;10.112;2022-11-13T16:37:18;10.20;99.90
9177;DHT22;4623;54.310;10.112;2022-11-13T16:39:44;10.20;99.90
9177;DHT22;4623;54.310;10.112;2022-11-13T16:42:11;10.10;99.90
9177;DHT22;4623;54.310;10.112;2022-11-13T16:44:37;10.10;99.90
9177;DHT22;4623;54.310;10.112;2022-11-13T16:47:04;10.10;99.90
9177;DHT22;4623;54.310;10.112;2022-11-13T16:49:30;10.10;99.90
9177;DHT22;4623;54.310;10.112;2022-11-13T16:51:56;10.10;99.90
9177;DHT22;4623;54.310;10.112;2022-11-13T16:54:22;10.10;99.90
9177;DHT22;4623;54.310;10.112;2022-11-13T16:56:50;10.10;99.90
9177;DHT22;4623;54.310;10.112;2022-11-13T16:59:16;10.10;99.90
9177;DHT22;4623;54.310;10.112;2022-11-13T17:01:42;10.10;99.90
9177;DHT22;4623;54.310;10.112;2022-11-13T17:04:11;10.10;99.90
9177;DHT22;4623;54.310;10.112;2022-11-13T17:06:47;10.10;99.90
9177;DHT22;4623;54.310;10.112;2022-11-13T17:09:13;10.10;99.90
9177;DHT22;4623;54.310;10.112;2022-11-13T17:11:38;10.10;99.90
9177;DHT22;4623;54.310;10.112;2022-11-13T17:14:04;10.10;99.90
9177;DHT22;4623;54.310;10.112;2022-11-13T17:16:30;10.20;99.90
9177;DHT22;4623;54.310;10.112;2022-11-13T17:18:57;10.20;99.90
9177;DHT22;4623;54.310;10.112;2022-11-13T17:21:26;10.20;99.90
9177;DHT22;4623;54.310;10.112;2022-11-13T17:23:58;10.30;99.90
9177;DHT22;4623;54.310;10.112;2022-11-13T17:26:25;10.20;99.90